Terminal Aerodrome Forecast
Issued by NWS Rapid City, SD

Home | Current Version | Previous Version | Text Only | Print | Product List | Glossary Off
Versions: 1 2 3 4 5 6 7 8 9 10 11 12 13 14

000
FTUS43 KUNR 231720
TAFRAP
TAF
KRAP 231720Z 2318/2418 33030G45KT P6SM SKC
     FM240000 33020G35KT P6SM SCT250
     FM240200 33015G25KT P6SM SCT250
     FM240700 33011KT P6SM SKC=

USA.gov is the U.S. government's official web portal to all federal, state and local government web resources and services.